CheckWX is a tool to help pilots better visualize weather data.  It is not intended as a substitute for an official pre-flight weather briefing.

11:37:08 UTC

KGRN METAR
Gordon Municipal Airport
Gordon, Nebraska, USA
Current

22 mins ago

KGRN 041115Z AUTO 19010KT 10SM CLR M02/M06 A3000 RMK AO2 T10211060
Observed
Apr-4 @ 11:15 UTC
Wind
  • 190° at 10 KTS
Visibility
Flight Rules
VFR
Cloud Levels
  • Clear skies
Temperature
-2°C / 28°F
Dewpoint
-6°C / 21°F
Humidity
74%
Altimeter
30" Hg
Pressure
1015.92 hPa
Previous

42 mins ago

KGRN 041055Z AUTO 19009KT 10SM CLR M02/M06 A3001 RMK AO2 T10251060
Observed
Apr-4 @ 10:55 UTC
Wind
  • 190° at 9 KTS
Visibility
Flight Rules
VFR
Cloud Levels
  • Clear skies
Temperature
-2°C / 28°F
Dewpoint
-6°C / 21°F
Humidity
74%
Altimeter
30.01" Hg
Pressure
1016.22 hPa
Previous

1 hour ago

KGRN 041035Z AUTO 20005KT 10SM CLR M02/M06 A3002 RMK AO2 T10251061
Observed
Apr-4 @ 10:35 UTC
Wind
  • 200° at 5 KTS
Visibility
Flight Rules
VFR
Cloud Levels
  • Clear skies
Temperature
-2°C / 28°F
Dewpoint
-6°C / 21°F
Humidity
74%
Altimeter
30.02" Hg
Pressure
1016.62 hPa